^^
Station Historical Data
Daily Summary for July 4, 2017 Units:  Both    English   Metric
« Previous Day
Next Day »
Daily Weekly Monthly Yearly Custom
  High: Low: Average:
Temperature: 72.9 °F /  22.7 °C 42.6 °F /  5.9 °C 57 °F /  13.9 °C
Dew Point: 34.9 °F /  1.6 °C 26.8 °F /  -2.9 °C 29.7 °F /  -1.3 °C
Humidity: 56% 21% 37%
Wind Speed: 6.0mph /  9.7km/h - 0.5mph /  0.8km/h
Wind Gust: 8.0mph /  12.9km/h - -
Wind- - South
Pressure: 30.44 in /  1030.7 hPa 30.32 in /  1026.6 hPa -
Precipitation: 0.00 in /  0 mm    
Historical Graphs
 
 
Tabular Data for July 4, 2017
Time Temperature Dew Point Pressure Wind Wind Speed Wind Gust Humidity Rainfall Rate (Hourly) solar Conditions
00:00 47.7 °F /  8.7 °C 26.8 °F /  -2.9 °C 30.38in /  1028.7hPa Calm     44% 0.00in /  0mm 0.0 W/m2
00:07 47.5 °F /  8.6 °C 27.1 °F /  -2.7 °C 30.38in /  1028.7hPa Calm     45% 0.00in /  0mm 0.0 W/m2
00:13 47.5 °F /  8.6 °C 27.1 °F /  -2.7 °C 30.38in /  1028.7hPa Calm   1.0mph /  1.6km/h 45% 0.00in /  0mm 0.0 W/m2
00:19 47.7 °F /  8.7 °C 27.3 °F /  -2.6 °C 30.38in /  1028.7hPa Calm     45% 0.00in /  0mm 0.0 W/m2
00:25 47.7 °F /  8.7 °C 26.8 °F /  -2.9 °C 30.38in /  1028.7hPa Calm   2.0mph /  3.2km/h 44% 0.00in /  0mm 0.0 W/m2
00:31 47.8 °F /  8.8 °C 27.0 °F /  -2.8 °C 30.39in /  1029hPa Calm     44% 0.00in /  0mm 0.0 W/m2
00:37 48.0 °F /  8.9 °C 27.1 °F /  -2.7 °C 30.38in /  1028.7hPa Calm     44% 0.00in /  0mm 0.0 W/m2
00:43 47.8 °F /  8.8 °C 27.0 °F /  -2.8 °C 30.38in /  1028.7hPa Calm     44% 0.00in /  0mm 0.0 W/m2
00:49 47.8 °F /  8.8 °C 27.0 °F /  -2.8 °C 30.38in /  1028.7hPa Calm   1.0mph /  1.6km/h 44% 0.00in /  0mm 0.0 W/m2
00:56 47.7 °F /  8.7 °C 27.3 °F /  -2.6 °C 30.38in /  1028.7hPa Calm     45% 0.00in /  0mm 0.0 W/m2
01:02 47.5 °F /  8.6 °C 27.1 °F /  -2.7 °C 30.38in /  1028.7hPa Calm     45% 0.00in /  0mm 0.0 W/m2
01:08 47.1 °F /  8.4 °C 26.8 °F /  -2.9 °C 30.38in /  1028.7hPa Calm     45% 0.00in /  0mm 0.0 W/m2
01:14 46.9 °F /  8.3 °C 26.8 °F /  -2.9 °C 30.38in /  1028.7hPa Calm     45% 0.00in /  0mm 0.0 W/m2
01:20 46.9 °F /  8.3 °C 27.3 °F /  -2.6 °C 30.38in /  1028.7hPa Calm     46% 0.00in /  0mm 0.0 W/m2
01:26 46.8 °F /  8.2 °C 27.7 °F /  -2.4 °C 30.37in /  1028.3hPa Calm     47% 0.00in /  0mm 0.0 W/m2
01:32 46.6 °F /  8.1 °C 27.5 °F /  -2.5 °C 30.37in /  1028.3hPa Calm     47% 0.00in /  0mm 0.0 W/m2
01:39 46.2 °F /  7.9 °C 27.1 °F /  -2.7 °C 30.37in /  1028.3hPa Calm     47% 0.00in /  0mm 0.0 W/m2
01:45 46.0 °F /  7.8 °C 27.0 °F /  -2.8 °C 30.37in /  1028.3hPa Calm   1.0mph /  1.6km/h 47% 0.00in /  0mm 0.0 W/m2
01:51 46.0 °F /  7.8 °C 27.5 °F /  -2.5 °C 30.37in /  1028.3hPa Calm     48% 0.00in /  0mm 0.0 W/m2
01:57 46.0 °F /  7.8 °C 27.5 °F /  -2.5 °C 30.37in /  1028.3hPa Calm     48% 0.00in /  0mm 0.0 W/m2
02:03 46.0 °F /  7.8 °C 27.5 °F /  -2.5 °C 30.36in /  1028hPa Calm   1.0mph /  1.6km/h 48% 0.00in /  0mm 0.0 W/m2
02:09 46.0 °F /  7.8 °C 27.5 °F /  -2.5 °C 30.36in /  1028hPa Calm     48% 0.00in /  0mm 0.0 W/m2
02:15 46.2 °F /  7.9 °C 27.7 °F /  -2.4 °C 30.36in /  1028hPa Calm     48% 0.00in /  0mm 0.0 W/m2
02:22 46.2 °F /  7.9 °C 27.7 °F /  -2.4 °C 30.36in /  1028hPa Calm     48% 0.00in /  0mm 0.0 W/m2
02:28 46.2 °F /  7.9 °C 27.7 °F /  -2.4 °C 30.36in /  1028hPa Calm     48% 0.00in /  0mm 0.0 W/m2
02:34 46.2 °F /  7.9 °C 27.7 °F /  -2.4 °C 30.36in /  1028hPa Calm     48% 0.00in /  0mm 0.0 W/m2
02:40 46.0 °F /  7.8 °C 27.5 °F /  -2.5 °C 30.36in /  1028hPa Calm     48% 0.00in /  0mm 0.0 W/m2
02:46 46.0 °F /  7.8 °C 27.9 °F /  -2.3 °C 30.36in /  1028hPa Calm     49% 0.00in /  0mm 0.0 W/m2
02:52 46.0 °F /  7.8 °C 27.9 °F /  -2.3 °C 30.36in /  1028hPa Calm     49% 0.00in /  0mm 0.0 W/m2
02:58 46.0 °F /  7.8 °C 27.9 °F /  -2.3 °C 30.36in /  1028hPa Calm     49% 0.00in /  0mm 0.0 W/m2
03:04 45.9 °F /  7.7 °C 28.2 °F /  -2.1 °C 30.36in /  1028hPa Calm     50% 0.00in /  0mm 0.0 W/m2
03:11 45.9 °F /  7.7 °C 28.2 °F /  -2.1 °C 30.37in /  1028.3hPa Calm     50% 0.00in /  0mm 0.0 W/m2
03:17 45.9 °F /  7.7 °C 28.2 °F /  -2.1 °C 30.37in /  1028.3hPa Calm     50% 0.00in /  0mm 0.0 W/m2
03:23 45.9 °F /  7.7 °C 28.2 °F /  -2.1 °C 30.37in /  1028.3hPa Calm     50% 0.00in /  0mm 0.0 W/m2
03:29 45.7 °F /  7.6 °C 28.0 °F /  -2.2 °C 30.36in /  1028hPa Calm     50% 0.00in /  0mm 0.0 W/m2
03:35 45.5 °F /  7.5 °C 28.4 °F /  -2 °C 30.37in /  1028.3hPa Calm     51% 0.00in /  0mm 0.0 W/m2
03:41 45.3 °F /  7.4 °C 28.2 °F /  -2.1 °C 30.37in /  1028.3hPa Calm     51% 0.00in /  0mm 0.0 W/m2
03:47 45.3 °F /  7.4 °C 28.2 °F /  -2.1 °C 30.37in /  1028.3hPa Calm     51% 0.00in /  0mm 0.0 W/m2
03:54 45.1 °F /  7.3 °C 28.0 °F /  -2.2 °C 30.37in /  1028.3hPa Calm     51% 0.00in /  0mm 0.0 W/m2
04:00 45.0 °F /  7.2 °C 27.9 °F /  -2.3 °C 30.37in /  1028.3hPa Calm     51% 0.00in /  0mm 0.0 W/m2
04:06 44.8 °F /  7.1 °C 28.2 °F /  -2.1 °C 30.37in /  1028.3hPa Calm     52% 0.00in /  0mm 0.0 W/m2
04:12 44.8 °F /  7.1 °C 27.7 °F /  -2.4 °C 30.36in /  1028hPa Calm     51% 0.00in /  0mm 0.0 W/m2
04:18 44.8 °F /  7.1 °C 28.2 °F /  -2.1 °C 30.36in /  1028hPa Calm     52% 0.00in /  0mm 0.0 W/m2
04:24 44.6 °F /  7 °C 28.0 °F /  -2.2 °C 30.37in /  1028.3hPa Calm     52% 0.00in /  0mm 0.0 W/m2
04:31 44.4 °F /  6.9 °C 27.9 °F /  -2.3 °C 30.36in /  1028hPa Calm     52% 0.00in /  0mm 0.0 W/m2
04:37 44.2 °F /  6.8 °C 27.7 °F /  -2.4 °C 30.37in /  1028.3hPa Calm     52% 0.00in /  0mm 0.0 W/m2
04:43 44.1 °F /  6.7 °C 28.4 °F /  -2 °C 30.37in /  1028.3hPa Calm     54% 0.00in /  0mm 0.0 W/m2
04:49 43.9 °F /  6.6 °C 28.4 °F /  -2 °C 30.37in /  1028.3hPa Calm     54% 0.00in /  0mm 0.0 W/m2
04:55 43.5 °F /  6.4 °C 28.0 °F /  -2.2 °C 30.37in /  1028.3hPa Calm     54% 0.00in /  0mm 0.0 W/m2
05:01 43.3 °F /  6.3 °C 28.2 °F /  -2.1 °C 30.37in /  1028.3hPa Calm     55% 0.00in /  0mm 0.0 W/m2
05:07 43.0 °F /  6.1 °C 27.9 °F /  -2.3 °C 30.37in /  1028.3hPa Calm     55% 0.00in /  0mm 0.0 W/m2
05:14 42.6 °F /  5.9 °C 27.5 °F /  -2.5 °C 30.38in /  1028.7hPa Calm     55% 0.00in /  0mm 0.0 W/m2
05:20 42.6 °F /  5.9 °C 28.0 °F /  -2.2 °C 30.38in /  1028.7hPa Calm     56% 0.00in /  0mm 0.0 W/m2
05:26 42.6 °F /  5.9 °C 28.0 °F /  -2.2 °C 30.38in /  1028.7hPa Calm     56% 0.00in /  0mm 0.0 W/m2
05:32 42.8 °F /  6 °C 28.2 °F /  -2.1 °C 30.38in /  1028.7hPa Calm     56% 0.00in /  0mm 0.0 W/m2
05:38 43.0 °F /  6.1 °C 27.9 °F /  -2.3 °C 30.38in /  1028.7hPa Calm     55% 0.00in /  0mm 0.0 W/m2
05:44 43.2 °F /  6.2 °C 28.0 °F /  -2.2 °C 30.38in /  1028.7hPa Calm   2.0mph /  3.2km/h 55% 0.00in /  0mm 0.0 W/m2
05:51 43.3 °F /  6.3 °C 28.2 °F /  -2.1 °C 30.38in /  1028.7hPa Calm   2.0mph /  3.2km/h 55% 0.00in /  0mm 0.0 W/m2
05:57 43.5 °F /  6.4 °C 28.0 °F /  -2.2 °C 30.39in /  1029hPa Calm   3.0mph /  4.8km/h 54% 0.00in /  0mm 0.0 W/m2
06:03 43.9 °F /  6.6 °C 28.4 °F /  -2 °C 30.39in /  1029hPa Calm   1.0mph /  1.6km/h 54% 0.00in /  0mm 0.0 W/m2
06:09 44.1 °F /  6.7 °C 28.0 °F /  -2.2 °C 30.39in /  1029hPa SE 2.0mph /  3.2km/h 2.0mph /  3.2km/h 53% 0.00in /  0mm 0.0 W/m2
06:15 44.2 °F /  6.8 °C 28.2 °F /  -2.1 °C 30.39in /  1029hPa Calm   3.0mph /  4.8km/h 53% 0.00in /  0mm 0.0 W/m2
06:21 44.4 °F /  6.9 °C 28.4 °F /  -2 °C 30.39in /  1029hPa Calm     53% 0.00in /  0mm 0.0 W/m2
06:27 44.4 °F /  6.9 °C 28.4 °F /  -2 °C 30.40in /  1029.3hPa East 0.9mph /  1.4km/h 1.0mph /  1.6km/h 53% 0.00in /  0mm 0.0 W/m2
06:34 44.2 °F /  6.8 °C 28.2 °F /  -2.1 °C 30.40in /  1029.3hPa Calm   2.0mph /  3.2km/h 53% 0.00in /  0mm 0.0 W/m2
06:40 44.2 °F /  6.8 °C 28.2 °F /  -2.1 °C 30.40in /  1029.3hPa Calm   2.0mph /  3.2km/h 53% 0.00in /  0mm 7.0 W/m2
06:46 44.4 °F /  6.9 °C 28.4 °F /  -2 °C 30.40in /  1029.3hPa Calm   2.0mph /  3.2km/h 53% 0.00in /  0mm 9.0 W/m2
06:52 44.4 °F /  6.9 °C 27.9 °F /  -2.3 °C 30.40in /  1029.3hPa Calm   1.0mph /  1.6km/h 52% 0.00in /  0mm 12.0 W/m2
06:58 44.4 °F /  6.9 °C 28.4 °F /  -2 °C 30.41in /  1029.7hPa Calm   1.0mph /  1.6km/h 53% 0.00in /  0mm 14.0 W/m2
07:04 44.4 °F /  6.9 °C 28.4 °F /  -2 °C 30.41in /  1029.7hPa Calm     53% 0.00in /  0mm 16.0 W/m2
07:10 44.4 °F /  6.9 °C 28.8 °F /  -1.8 °C 30.41in /  1029.7hPa Calm     54% 0.00in /  0mm 18.0 W/m2
07:17 44.4 °F /  6.9 °C 28.8 °F /  -1.8 °C 30.42in /  1030hPa Calm   1.0mph /  1.6km/h 54% 0.00in /  0mm 19.0 W/m2
07:23 44.8 °F /  7.1 °C 29.7 °F /  -1.3 °C 30.42in /  1030hPa Calm     55% 0.00in /  0mm 21.0 W/m2
07:29 44.8 °F /  7.1 °C 29.1 °F /  -1.6 °C 30.42in /  1030hPa Calm   2.0mph /  3.2km/h 54% 0.00in /  0mm 23.0 W/m2
07:35 45.3 °F /  7.4 °C 29.1 °F /  -1.6 °C 30.42in /  1030hPa Calm   1.0mph /  1.6km/h 53% 0.00in /  0mm 26.0 W/m2
07:41 45.9 °F /  7.7 °C 29.7 °F /  -1.3 °C 30.42in /  1030hPa Calm     53% 0.00in /  0mm 26.0 W/m2
07:47 46.2 °F /  7.9 °C 30.0 °F /  -1.1 °C 30.43in /  1030.4hPa Calm   1.0mph /  1.6km/h 53% 0.00in /  0mm 28.0 W/m2
07:53 47.1 °F /  8.4 °C 30.4 °F /  -0.9 °C 30.43in /  1030.4hPa Calm   2.0mph /  3.2km/h 52% 0.00in /  0mm 30.0 W/m2
08:00 48.6 °F /  9.2 °C 30.7 °F /  -0.7 °C 30.43in /  1030.4hPa Calm     50% 0.00in /  0mm 104.0 W/m2
08:06 50.4 °F /  10.2 °C 31.5 °F /  -0.3 °C 30.44in /  1030.7hPa ENE 0.9mph /  1.4km/h 1.0mph /  1.6km/h 48% 0.00in /  0mm 262.0 W/m2
08:12 52.3 °F /  11.3 °C 32.2 °F /  0.1 °C 30.44in /  1030.7hPa NE 0.9mph /  1.4km/h 1.0mph /  1.6km/h 46% 0.00in /  0mm 285.0 W/m2
08:18 54.9 °F /  12.7 °C 32.2 °F /  0.1 °C 30.44in /  1030.7hPa Calm   5.0mph /  8km/h 42% 0.00in /  0mm 304.0 W/m2
08:24 56.7 °F /  13.7 °C 32.5 °F /  0.3 °C 30.44in /  1030.7hPa NNE 0.9mph /  1.4km/h 1.0mph /  1.6km/h 40% 0.00in /  0mm 323.0 W/m2
08:30 58.3 °F /  14.6 °C 32.7 °F /  0.4 °C 30.44in /  1030.7hPa Calm   1.0mph /  1.6km/h 38% 0.00in /  0mm 345.0 W/m2
08:37 59.9 °F /  15.5 °C 32.9 °F /  0.5 °C 30.44in /  1030.7hPa Calm   3.0mph /  4.8km/h 36% 0.00in /  0mm 362.0 W/m2
08:43 61.0 °F /  16.1 °C 33.1 °F /  0.6 °C 30.44in /  1030.7hPa Calm   5.0mph /  8km/h 35% 0.00in /  0mm 380.0 W/m2
08:49 62.1 °F /  16.7 °C 33.4 °F /  0.8 °C 30.44in /  1030.7hPa NNE 2.9mph /  4.7km/h 5.0mph /  8km/h 34% 0.00in /  0mm 397.0 W/m2
08:55 63.1 °F /  17.3 °C 33.6 °F /  0.9 °C 30.44in /  1030.7hPa Calm   1.0mph /  1.6km/h 33% 0.00in /  0mm 415.0 W/m2
09:01 64.0 °F /  17.8 °C 33.6 °F /  0.9 °C 30.44in /  1030.7hPa ESE 2.0mph /  3.2km/h 5.0mph /  8km/h 32% 0.00in /  0mm 432.0 W/m2
09:07 64.8 °F /  18.2 °C 33.4 °F /  0.8 °C 30.44in /  1030.7hPa Calm   1.0mph /  1.6km/h 31% 0.00in /  0mm 452.0 W/m2
09:13 65.1 °F /  18.4 °C 33.8 °F /  1 °C 30.44in /  1030.7hPa NNE 2.0mph /  3.2km/h 2.0mph /  3.2km/h 31% 0.00in /  0mm 468.0 W/m2
09:19 65.7 °F /  18.7 °C 33.4 °F /  0.8 °C 30.43in /  1030.4hPa Calm     30% 0.00in /  0mm 482.0 W/m2
09:25 66.4 °F /  19.1 °C 34.0 °F /  1.1 °C 30.43in /  1030.4hPa NNE 2.0mph /  3.2km/h 4.0mph /  6.4km/h 30% 0.00in /  0mm 496.0 W/m2
09:32 66.6 °F /  19.2 °C 34.2 °F /  1.2 °C 30.43in /  1030.4hPa Calm   2.0mph /  3.2km/h 30% 0.00in /  0mm 510.0 W/m2
09:38 66.4 °F /  19.1 °C 34.0 °F /  1.1 °C 30.43in /  1030.4hPa North 0.9mph /  1.4km/h 2.0mph /  3.2km/h 30% 0.00in /  0mm 524.0 W/m2
09:44 67.1 °F /  19.5 °C 33.8 °F /  1 °C 30.43in /  1030.4hPa NNW 0.9mph /  1.4km/h 2.0mph /  3.2km/h 29% 0.00in /  0mm 538.0 W/m2
09:50 67.6 °F /  19.8 °C 33.4 °F /  0.8 °C 30.43in /  1030.4hPa Calm   3.0mph /  4.8km/h 28% 0.00in /  0mm 552.0 W/m2
09:56 67.8 °F /  19.9 °C 34.3 °F /  1.3 °C 30.43in /  1030.4hPa NNW 2.0mph /  3.2km/h 3.0mph /  4.8km/h 29% 0.00in /  0mm 559.0 W/m2
10:02 67.8 °F /  19.9 °C 34.3 °F /  1.3 °C 30.43in /  1030.4hPa Calm   2.0mph /  3.2km/h 29% 0.00in /  0mm 571.0 W/m2
10:08 67.8 °F /  19.9 °C 34.3 °F /  1.3 °C 30.43in /  1030.4hPa Calm   2.0mph /  3.2km/h 29% 0.00in /  0mm 582.0 W/m2
10:15 68.4 °F /  20.2 °C 34.9 °F /  1.6 °C 30.43in /  1030.4hPa NW 2.9mph /  4.7km/h 5.0mph /  8km/h 29% 0.00in /  0mm 596.0 W/m2
10:21 68.7 °F /  20.4 °C 34.3 °F /  1.3 °C 30.43in /  1030.4hPa NW 0.9mph /  1.4km/h 1.0mph /  1.6km/h 28% 0.00in /  0mm 603.0 W/m2
10:27 69.1 °F /  20.6 °C 34.5 °F /  1.4 °C 30.42in /  1030hPa NNW 6.0mph /  9.7km/h 6.0mph /  9.7km/h 28% 0.00in /  0mm 613.0 W/m2
10:33 69.6 °F /  20.9 °C 34.2 °F /  1.2 °C 30.42in /  1030hPa WNW 0.9mph /  1.4km/h 4.0mph /  6.4km/h 27% 0.00in /  0mm 622.0 W/m2
10:39 69.6 °F /  20.9 °C 34.2 °F /  1.2 °C 30.42in /  1030hPa NW 0.9mph /  1.4km/h 5.0mph /  8km/h 27% 0.00in /  0mm 629.0 W/m2
10:45 70.0 °F /  21.1 °C 34.5 °F /  1.4 °C 30.42in /  1030hPa Calm   8.0mph /  12.9km/h 27% 0.00in /  0mm 636.0 W/m2
10:51 70.2 °F /  21.2 °C 33.6 °F /  0.9 °C 30.41in /  1029.7hPa NNW 2.0mph /  3.2km/h 7.0mph /  11.3km/h 26% 0.00in /  0mm 642.0 W/m2
10:58 70.3 °F /  21.3 °C 33.8 °F /  1 °C 30.41in /  1029.7hPa NNW 2.0mph /  3.2km/h 7.0mph /  11.3km/h 26% 0.00in /  0mm 650.0 W/m2
11:04 70.7 °F /  21.5 °C 34.2 °F /  1.2 °C 30.41in /  1029.7hPa North 4.0mph /  6.4km/h 5.0mph /  8km/h 26% 0.00in /  0mm 659.0 W/m2
11:10 70.9 °F /  21.6 °C 33.3 °F /  0.7 °C 30.41in /  1029.7hPa NNW 0.9mph /  1.4km/h 4.0mph /  6.4km/h 25% 0.00in /  0mm 663.0 W/m2
11:16 70.9 °F /  21.6 °C 34.3 °F /  1.3 °C 30.40in /  1029.3hPa NNE 2.0mph /  3.2km/h 7.0mph /  11.3km/h 26% 0.00in /  0mm 657.0 W/m2
11:22 70.9 °F /  21.6 °C 34.3 °F /  1.3 °C 30.40in /  1029.3hPa Calm   5.0mph /  8km/h 26% 0.00in /  0mm 668.0 W/m2
11:28 70.9 °F /  21.6 °C 32.4 °F /  0.2 °C 30.39in /  1029hPa SW 0.9mph /  1.4km/h 7.0mph /  11.3km/h 24% 0.00in /  0mm 670.0 W/m2
11:35 70.7 °F /  21.5 °C 34.2 °F /  1.2 °C 30.39in /  1029hPa Calm   8.0mph /  12.9km/h 26% 0.00in /  0mm 666.0 W/m2
11:41 70.9 °F /  21.6 °C 33.3 °F /  0.7 °C 30.39in /  1029hPa West 0.9mph /  1.4km/h 5.0mph /  8km/h 25% 0.00in /  0mm 671.0 W/m2
11:47 70.7 °F /  21.5 °C 33.1 °F /  0.6 °C 30.39in /  1029hPa Calm   5.0mph /  8km/h 25% 0.00in /  0mm 671.0 W/m2
11:53 70.7 °F /  21.5 °C 32.2 °F /  0.1 °C 30.38in /  1028.7hPa NNE 0.9mph /  1.4km/h 5.0mph /  8km/h 24% 0.00in /  0mm 668.0 W/m2
11:59 71.1 °F /  21.7 °C 33.4 °F /  0.8 °C 30.38in /  1028.7hPa Calm   4.0mph /  6.4km/h 25% 0.00in /  0mm 666.0 W/m2
12:05 71.2 °F /  21.8 °C 32.5 °F /  0.3 °C 30.37in /  1028.3hPa Calm   4.0mph /  6.4km/h 24% 0.00in /  0mm 666.0 W/m2
12:11 71.2 °F /  21.8 °C 31.5 °F /  -0.3 °C 30.37in /  1028.3hPa West 2.0mph /  3.2km/h 5.0mph /  8km/h 23% 0.00in /  0mm 668.0 W/m2
12:18 71.2 °F /  21.8 °C 32.5 °F /  0.3 °C 30.37in /  1028.3hPa Calm   3.0mph /  4.8km/h 24% 0.00in /  0mm 666.0 W/m2
12:24 71.2 °F /  21.8 °C 31.5 °F /  -0.3 °C 30.37in /  1028.3hPa Calm   2.0mph /  3.2km/h 23% 0.00in /  0mm 663.0 W/m2
12:30 71.4 °F /  21.9 °C 32.7 °F /  0.4 °C 30.36in /  1028hPa Calm   3.0mph /  4.8km/h 24% 0.00in /  0mm 659.0 W/m2
12:36 72.0 °F /  22.2 °C 33.3 °F /  0.7 °C 30.36in /  1028hPa Calm   1.0mph /  1.6km/h 24% 0.00in /  0mm 652.0 W/m2
12:42 72.1 °F /  22.3 °C 32.4 °F /  0.2 °C 30.36in /  1028hPa North 4.9mph /  7.9km/h 6.0mph /  9.7km/h 23% 0.00in /  0mm 654.0 W/m2
12:48 72.5 °F /  22.5 °C 31.5 °F /  -0.3 °C 30.36in /  1028hPa NNE 4.9mph /  7.9km/h 6.0mph /  9.7km/h 22% 0.00in /  0mm 645.0 W/m2
12:54 72.7 °F /  22.6 °C 31.6 °F /  -0.2 °C 30.35in /  1027.7hPa Calm   3.0mph /  4.8km/h 22% 0.00in /  0mm 636.0 W/m2
13:01 72.7 °F /  22.6 °C 31.6 °F /  -0.2 °C 30.35in /  1027.7hPa SE 0.9mph /  1.4km/h 3.0mph /  4.8km/h 22% 0.00in /  0mm 628.0 W/m2
13:07 72.5 °F /  22.5 °C 31.5 °F /  -0.3 °C 30.35in /  1027.7hPa NNW 2.0mph /  3.2km/h 3.0mph /  4.8km/h 22% 0.00in /  0mm 601.0 W/m2
13:13 72.7 °F /  22.6 °C 31.6 °F /  -0.2 °C 30.35in /  1027.7hPa WSW 2.0mph /  3.2km/h 7.0mph /  11.3km/h 22% 0.00in /  0mm 601.0 W/m2
13:19 72.5 °F /  22.5 °C 32.5 °F /  0.3 °C 30.34in /  1027.3hPa Calm   3.0mph /  4.8km/h 23% 0.00in /  0mm 592.0 W/m2
13:25 72.7 °F /  22.6 °C 32.7 °F /  0.4 °C 30.34in /  1027.3hPa NNW 0.9mph /  1.4km/h 3.0mph /  4.8km/h 23% 0.00in /  0mm 587.0 W/m2
13:31 72.7 °F /  22.6 °C 32.7 °F /  0.4 °C 30.34in /  1027.3hPa NW 4.9mph /  7.9km/h 5.0mph /  8km/h 23% 0.00in /  0mm 589.0 W/m2
13:37 72.9 °F /  22.7 °C 31.8 °F /  -0.1 °C 30.34in /  1027.3hPa West 2.0mph /  3.2km/h 5.0mph /  8km/h 22% 0.00in /  0mm 573.0 W/m2
13:43 72.9 °F /  22.7 °C 31.8 °F /  -0.1 °C 30.34in /  1027.3hPa Calm   2.0mph /  3.2km/h 22% 0.00in /  0mm 559.0 W/m2
13:50 72.7 °F /  22.6 °C 31.6 °F /  -0.2 °C 30.34in /  1027.3hPa East 2.0mph /  3.2km/h 5.0mph /  8km/h 22% 0.00in /  0mm 543.0 W/m2
13:56 72.5 °F /  22.5 °C 32.5 °F /  0.3 °C 30.34in /  1027.3hPa SW 0.9mph /  1.4km/h 5.0mph /  8km/h 23% 0.00in /  0mm 531.0 W/m2
14:02 72.7 °F /  22.6 °C 31.6 °F /  -0.2 °C 30.33in /  1027hPa Calm   3.0mph /  4.8km/h 22% 0.00in /  0mm 526.0 W/m2
14:08 72.9 °F /  22.7 °C 31.8 °F /  -0.1 °C 30.33in /  1027hPa North 6.0mph /  9.7km/h 6.0mph /  9.7km/h 22% 0.00in /  0mm 513.0 W/m2
14:14 72.9 °F /  22.7 °C 30.6 °F /  -0.8 °C 30.33in /  1027hPa Calm   3.0mph /  4.8km/h 21% 0.00in /  0mm 496.0 W/m2
14:20 72.9 °F /  22.7 °C 31.8 °F /  -0.1 °C 30.33in /  1027hPa WNW 0.9mph /  1.4km/h 7.0mph /  11.3km/h 22% 0.00in /  0mm 485.0 W/m2
14:26 72.9 °F /  22.7 °C 30.6 °F /  -0.8 °C 30.32in /  1026.6hPa West 2.0mph /  3.2km/h 6.0mph /  9.7km/h 21% 0.00in /  0mm 471.0 W/m2
14:32 72.9 °F /  22.7 °C 30.6 °F /  -0.8 °C 30.33in /  1027hPa NNW 2.0mph /  3.2km/h 5.0mph /  8km/h 21% 0.00in /  0mm 446.0 W/m2
14:38 72.7 °F /  22.6 °C 30.6 °F /  -0.8 °C 30.32in /  1026.6hPa NW 0.9mph /  1.4km/h 3.0mph /  4.8km/h 21% 0.00in /  0mm 422.0 W/m2
14:45 72.7 °F /  22.6 °C 30.6 °F /  -0.8 °C 30.32in /  1026.6hPa North 2.9mph /  4.7km/h 3.0mph /  4.8km/h 21% 0.00in /  0mm 410.0 W/m2
14:51 72.7 °F /  22.6 °C 30.6 °F /  -0.8 °C 30.32in /  1026.6hPa NNW 0.9mph /  1.4km/h 6.0mph /  9.7km/h 21% 0.00in /  0mm 392.0 W/m2
14:57 72.9 °F /  22.7 °C 30.6 °F /  -0.8 °C 30.32in /  1026.6hPa WNW 0.9mph /  1.4km/h 3.0mph /  4.8km/h 21% 0.00in /  0mm 376.0 W/m2
15:03 72.7 °F /  22.6 °C 31.6 °F /  -0.2 °C 30.32in /  1026.6hPa West 2.0mph /  3.2km/h 2.0mph /  3.2km/h 22% 0.00in /  0mm 364.0 W/m2
15:09 72.3 °F /  22.4 °C 31.3 °F /  -0.4 °C 30.32in /  1026.6hPa NNW 2.0mph /  3.2km/h 4.0mph /  6.4km/h 22% 0.00in /  0mm 348.0 W/m2
15:15 72.1 °F /  22.3 °C 30.0 °F /  -1.1 °C 30.32in /  1026.6hPa NNE 2.0mph /  3.2km/h 3.0mph /  4.8km/h 21% 0.00in /  0mm 332.0 W/m2
15:21 72.0 °F /  22.2 °C 29.8 °F /  -1.2 °C 30.32in /  1026.6hPa Calm   5.0mph /  8km/h 21% 0.00in /  0mm 315.0 W/m2
15:27 71.4 °F /  21.9 °C 30.6 °F /  -0.8 °C 30.32in /  1026.6hPa WSW 0.9mph /  1.4km/h 2.0mph /  3.2km/h 22% 0.00in /  0mm 60.0 W/m2
15:33 71.2 °F /  21.8 °C 30.4 °F /  -0.9 °C 30.32in /  1026.6hPa Calm   3.0mph /  4.8km/h 22% 0.00in /  0mm 53.0 W/m2
15:40 71.1 °F /  21.7 °C 29.1 °F /  -1.6 °C 30.32in /  1026.6hPa NNW 2.0mph /  3.2km/h 5.0mph /  8km/h 21% 0.00in /  0mm 51.0 W/m2
15:46 70.9 °F /  21.6 °C 30.2 °F /  -1 °C 30.32in /  1026.6hPa NNW 2.0mph /  3.2km/h 3.0mph /  4.8km/h 22% 0.00in /  0mm 49.0 W/m2
15:52 70.7 °F /  21.5 °C 30.0 °F /  -1.1 °C 30.32in /  1026.6hPa NNE 0.9mph /  1.4km/h 6.0mph /  9.7km/h 22% 0.00in /  0mm 46.0 W/m2
15:58 70.3 °F /  21.3 °C 29.7 °F /  -1.3 °C 30.32in /  1026.6hPa Calm   1.0mph /  1.6km/h 22% 0.00in /  0mm 42.0 W/m2
16:04 70.2 °F /  21.2 °C 29.5 °F /  -1.4 °C 30.33in /  1027hPa West 0.9mph /  1.4km/h 3.0mph /  4.8km/h 22% 0.00in /  0mm 39.0 W/m2
16:10 70.0 °F /  21.1 °C 30.6 °F /  -0.8 °C 30.33in /  1027hPa WNW 0.9mph /  1.4km/h 4.0mph /  6.4km/h 23% 0.00in /  0mm 33.0 W/m2
16:16 69.4 °F /  20.8 °C 28.9 °F /  -1.7 °C 30.33in /  1027hPa Calm   4.0mph /  6.4km/h 22% 0.00in /  0mm 30.0 W/m2
16:22 69.1 °F /  20.6 °C 29.7 °F /  -1.3 °C 30.33in /  1027hPa NNW 4.0mph /  6.4km/h 4.0mph /  6.4km/h 23% 0.00in /  0mm 28.0 W/m2
16:31 68.7 °F /  20.4 °C 29.5 °F /  -1.4 °C 30.33in /  1027hPa Calm   1.0mph /  1.6km/h 23% 0.00in /  0mm 25.0 W/m2
16:37 68.5 °F /  20.3 °C 30.4 °F /  -0.9 °C 30.33in /  1027hPa Calm     24% 0.00in /  0mm 23.0 W/m2
16:43 68.2 °F /  20.1 °C 28.9 °F /  -1.7 °C 30.33in /  1027hPa Calm   1.0mph /  1.6km/h 23% 0.00in /  0mm 21.0 W/m2
16:49 67.6 °F /  19.8 °C 30.6 °F /  -0.8 °C 30.34in /  1027.3hPa Calm     25% 0.00in /  0mm 19.0 W/m2
16:55 67.3 °F /  19.6 °C 30.2 °F /  -1 °C 30.34in /  1027.3hPa Calm     25% 0.00in /  0mm 16.0 W/m2
17:01 66.7 °F /  19.3 °C 30.7 °F /  -0.7 °C 30.34in /  1027.3hPa Calm     26% 0.00in /  0mm 12.0 W/m2
17:07 66.4 °F /  19.1 °C 31.5 °F /  -0.3 °C 30.34in /  1027.3hPa Calm   1.0mph /  1.6km/h 27% 0.00in /  0mm 9.0 W/m2
17:14 65.8 °F /  18.8 °C 30.9 °F /  -0.6 °C 30.35in /  1027.7hPa Calm     27% 0.00in /  0mm 7.0 W/m2
17:20 65.1 °F /  18.4 °C 30.4 °F /  -0.9 °C 30.35in /  1027.7hPa Calm     27% 0.00in /  0mm 0.0 W/m2
17:26 64.2 °F /  17.9 °C 29.5 °F /  -1.4 °C 30.35in /  1027.7hPa Calm     27% 0.00in /  0mm 0.0 W/m2
17:32 63.7 °F /  17.6 °C 29.1 °F /  -1.6 °C 30.36in /  1028hPa Calm     27% 0.00in /  0mm 0.0 W/m2
17:38 63.0 °F /  17.2 °C 29.3 °F /  -1.5 °C 30.36in /  1028hPa Calm     28% 0.00in /  0mm 0.0 W/m2
17:44 62.2 °F /  16.8 °C 29.7 °F /  -1.3 °C 30.36in /  1028hPa Calm     29% 0.00in /  0mm 0.0 W/m2
17:50 61.5 °F /  16.4 °C 29.8 °F /  -1.2 °C 30.36in /  1028hPa Calm     30% 0.00in /  0mm 0.0 W/m2
17:57 61.0 °F /  16.1 °C 29.3 °F /  -1.5 °C 30.37in /  1028.3hPa Calm     30% 0.00in /  0mm 0.0 W/m2
18:03 60.3 °F /  15.7 °C 29.5 °F /  -1.4 °C 30.37in /  1028.3hPa Calm   1.0mph /  1.6km/h 31% 0.00in /  0mm 0.0 W/m2
18:09 59.5 °F /  15.3 °C 28.0 °F /  -2.2 °C 30.37in /  1028.3hPa Calm   1.0mph /  1.6km/h 30% 0.00in /  0mm 0.0 W/m2
18:15 59.0 °F /  15 °C 28.4 °F /  -2 °C 30.37in /  1028.3hPa Calm   1.0mph /  1.6km/h 31% 0.00in /  0mm 0.0 W/m2
18:21 58.8 °F /  14.9 °C 27.5 °F /  -2.5 °C 30.37in /  1028.3hPa East 0.9mph /  1.4km/h 2.0mph /  3.2km/h 30% 0.00in /  0mm 0.0 W/m2
18:27 58.5 °F /  14.7 °C 27.9 °F /  -2.3 °C 30.38in /  1028.7hPa ENE 0.9mph /  1.4km/h 2.0mph /  3.2km/h 31% 0.00in /  0mm 0.0 W/m2
18:33 58.3 °F /  14.6 °C 27.9 °F /  -2.3 °C 30.38in /  1028.7hPa NE 0.9mph /  1.4km/h 2.0mph /  3.2km/h 31% 0.00in /  0mm 0.0 W/m2
18:40 58.3 °F /  14.6 °C 27.9 °F /  -2.3 °C 30.38in /  1028.7hPa Calm   2.0mph /  3.2km/h 31% 0.00in /  0mm 0.0 W/m2
18:46 58.3 °F /  14.6 °C 28.6 °F /  -1.9 °C 30.39in /  1029hPa Calm   1.0mph /  1.6km/h 32% 0.00in /  0mm 0.0 W/m2
18:52 58.1 °F /  14.5 °C 27.7 °F /  -2.4 °C 30.39in /  1029hPa Calm   1.0mph /  1.6km/h 31% 0.00in /  0mm 0.0 W/m2
18:58 57.9 °F /  14.4 °C 28.2 °F /  -2.1 °C 30.39in /  1029hPa Calm   2.0mph /  3.2km/h 32% 0.00in /  0mm 0.0 W/m2
19:04 57.7 °F /  14.3 °C 28.0 °F /  -2.2 °C 30.39in /  1029hPa Calm   2.0mph /  3.2km/h 32% 0.00in /  0mm 0.0 W/m2
19:10 57.4 °F /  14.1 °C 28.6 °F /  -1.9 °C 30.39in /  1029hPa NE 0.9mph /  1.4km/h 2.0mph /  3.2km/h 33% 0.00in /  0mm 0.0 W/m2
19:16 57.0 °F /  13.9 °C 28.2 °F /  -2.1 °C 30.40in /  1029.3hPa Calm   1.0mph /  1.6km/h 33% 0.00in /  0mm 0.0 W/m2
19:22 56.7 °F /  13.7 °C 28.6 °F /  -1.9 °C 30.40in /  1029.3hPa Calm   1.0mph /  1.6km/h 34% 0.00in /  0mm 0.0 W/m2
19:28 56.3 °F /  13.5 °C 28.2 °F /  -2.1 °C 30.40in /  1029.3hPa Calm     34% 0.00in /  0mm 0.0 W/m2
19:34 55.9 °F /  13.3 °C 28.8 °F /  -1.8 °C 30.40in /  1029.3hPa Calm     35% 0.00in /  0mm 0.0 W/m2
19:41 55.4 °F /  13 °C 28.2 °F /  -2.1 °C 30.40in /  1029.3hPa Calm     35% 0.00in /  0mm 0.0 W/m2
19:47 54.9 °F /  12.7 °C 28.4 °F /  -2 °C 30.41in /  1029.7hPa Calm     36% 0.00in /  0mm 0.0 W/m2
19:53 54.3 °F /  12.4 °C 28.6 °F /  -1.9 °C 30.41in /  1029.7hPa Calm     37% 0.00in /  0mm 0.0 W/m2
19:59 54.0 °F /  12.2 °C 28.2 °F /  -2.1 °C 30.41in /  1029.7hPa Calm   1.0mph /  1.6km/h 37% 0.00in /  0mm 0.0 W/m2
20:05 53.6 °F /  12 °C 28.0 °F /  -2.2 °C 30.42in /  1030hPa Calm   3.0mph /  4.8km/h 37% 0.00in /  0mm 0.0 W/m2
20:11 53.4 °F /  11.9 °C 28.4 °F /  -2 °C 30.42in /  1030hPa Calm   1.0mph /  1.6km/h 38% 0.00in /  0mm 0.0 W/m2
20:17 53.4 °F /  11.9 °C 28.4 °F /  -2 °C 30.42in /  1030hPa Calm     38% 0.00in /  0mm 0.0 W/m2
20:23 53.6 °F /  12 °C 28.6 °F /  -1.9 °C 30.42in /  1030hPa ENE 0.9mph /  1.4km/h 3.0mph /  4.8km/h 38% 0.00in /  0mm 0.0 W/m2
20:29 53.4 °F /  11.9 °C 27.9 °F /  -2.3 °C 30.42in /  1030hPa Calm   4.0mph /  6.4km/h 37% 0.00in /  0mm 0.0 W/m2
20:35 53.4 °F /  11.9 °C 27.9 °F /  -2.3 °C 30.42in /  1030hPa East 0.9mph /  1.4km/h 1.0mph /  1.6km/h 37% 0.00in /  0mm 0.0 W/m2
20:41 53.4 °F /  11.9 °C 28.4 °F /  -2 °C 30.42in /  1030hPa ESE 0.9mph /  1.4km/h 3.0mph /  4.8km/h 38% 0.00in /  0mm 0.0 W/m2
20:47 53.2 °F /  11.8 °C 28.2 °F /  -2.1 °C 30.42in /  1030hPa Calm   3.0mph /  4.8km/h 38% 0.00in /  0mm 0.0 W/m2
20:53 53.2 °F /  11.8 °C 28.2 °F /  -2.1 °C 30.43in /  1030.4hPa Calm   1.0mph /  1.6km/h 38% 0.00in /  0mm 0.0 W/m2
20:59 53.1 °F /  11.7 °C 28.0 °F /  -2.2 °C 30.43in /  1030.4hPa Calm   1.0mph /  1.6km/h 38% 0.00in /  0mm 0.0 W/m2
21:05 53.1 °F /  11.7 °C 28.0 °F /  -2.2 °C 30.42in /  1030hPa ENE 0.9mph /  1.4km/h 3.0mph /  4.8km/h 38% 0.00in /  0mm 0.0 W/m2
21:11 52.9 °F /  11.6 °C 28.0 °F /  -2.2 °C 30.43in /  1030.4hPa Calm   2.0mph /  3.2km/h 38% 0.00in /  0mm 0.0 W/m2
21:17 52.7 °F /  11.5 °C 27.9 °F /  -2.3 °C 30.43in /  1030.4hPa Calm   2.0mph /  3.2km/h 38% 0.00in /  0mm 0.0 W/m2
21:23 52.5 °F /  11.4 °C 27.7 °F /  -2.4 °C 30.43in /  1030.4hPa Calm   3.0mph /  4.8km/h 38% 0.00in /  0mm 0.0 W/m2
21:29 52.5 °F /  11.4 °C 28.2 °F /  -2.1 °C 30.43in /  1030.4hPa NE 0.9mph /  1.4km/h 2.0mph /  3.2km/h 39% 0.00in /  0mm 0.0 W/m2
21:35 52.3 °F /  11.3 °C 28.0 °F /  -2.2 °C 30.42in /  1030hPa Calm     39% 0.00in /  0mm 0.0 W/m2
21:41 52.2 °F /  11.2 °C 27.9 °F /  -2.3 °C 30.43in /  1030.4hPa Calm   1.0mph /  1.6km/h 39% 0.00in /  0mm 0.0 W/m2
21:47 52.0 °F /  11.1 °C 27.9 °F /  -2.3 °C 30.42in /  1030hPa Calm     39% 0.00in /  0mm 0.0 W/m2
21:53 52.0 °F /  11.1 °C 27.9 °F /  -2.3 °C 30.43in /  1030.4hPa East 2.0mph /  3.2km/h 2.0mph /  3.2km/h 39% 0.00in /  0mm 0.0 W/m2
21:59 51.6 °F /  10.9 °C 28.0 °F /  -2.2 °C 30.43in /  1030.4hPa Calm   2.0mph /  3.2km/h 40% 0.00in /  0mm 0.0 W/m2
22:05 51.4 °F /  10.8 °C 27.9 °F /  -2.3 °C 30.43in /  1030.4hPa Calm   1.0mph /  1.6km/h 40% 0.00in /  0mm 0.0 W/m2
22:11 51.3 °F /  10.7 °C 27.7 °F /  -2.4 °C 30.43in /  1030.4hPa Calm   3.0mph /  4.8km/h 40% 0.00in /  0mm 0.0 W/m2
22:17 51.3 °F /  10.7 °C 27.7 °F /  -2.4 °C 30.43in /  1030.4hPa Calm   2.0mph /  3.2km/h 40% 0.00in /  0mm 0.0 W/m2
22:23 51.1 °F /  10.6 °C 28.2 °F /  -2.1 °C 30.43in /  1030.4hPa Calm   1.0mph /  1.6km/h 41% 0.00in /  0mm 0.0 W/m2
22:29 51.3 °F /  10.7 °C 28.4 °F /  -2 °C 30.43in /  1030.4hPa Calm   1.0mph /  1.6km/h 41% 0.00in /  0mm 0.0 W/m2
22:35 51.3 °F /  10.7 °C 28.4 °F /  -2 °C 30.43in /  1030.4hPa Calm   2.0mph /  3.2km/h 41% 0.00in /  0mm 0.0 W/m2
22:41 51.3 °F /  10.7 °C 28.4 °F /  -2 °C 30.43in /  1030.4hPa ENE 0.9mph /  1.4km/h 2.0mph /  3.2km/h 41% 0.00in /  0mm 0.0 W/m2
22:47 51.1 °F /  10.6 °C 28.2 °F /  -2.1 °C 30.43in /  1030.4hPa Calm     41% 0.00in /  0mm 0.0 W/m2
22:53 50.9 °F /  10.5 °C 28.6 °F /  -1.9 °C 30.43in /  1030.4hPa NE 0.9mph /  1.4km/h 2.0mph /  3.2km/h 42% 0.00in /  0mm 0.0 W/m2
22:59 50.7 °F /  10.4 °C 28.4 °F /  -2 °C 30.43in /  1030.4hPa Calm   2.0mph /  3.2km/h 42% 0.00in /  0mm 0.0 W/m2
23:05 50.7 °F /  10.4 °C 28.4 °F /  -2 °C 30.43in /  1030.4hPa Calm   3.0mph /  4.8km/h 42% 0.00in /  0mm 0.0 W/m2
23:11 50.7 °F /  10.4 °C 28.4 °F /  -2 °C 30.43in /  1030.4hPa Calm   3.0mph /  4.8km/h 42% 0.00in /  0mm 0.0 W/m2
23:17 50.7 °F /  10.4 °C 29.1 °F /  -1.6 °C 30.43in /  1030.4hPa Calm   1.0mph /  1.6km/h 43% 0.00in /  0mm 0.0 W/m2
23:23 50.7 °F /  10.4 °C 29.1 °F /  -1.6 °C 30.43in /  1030.4hPa Calm   2.0mph /  3.2km/h 43% 0.00in /  0mm 0.0 W/m2
23:29 50.7 °F /  10.4 °C 29.1 °F /  -1.6 °C 30.43in /  1030.4hPa Calm   1.0mph /  1.6km/h 43% 0.00in /  0mm 0.0 W/m2
23:35 50.5 °F /  10.3 °C 28.9 °F /  -1.7 °C 30.43in /  1030.4hPa Calm   2.0mph /  3.2km/h 43% 0.00in /  0mm 0.0 W/m2
23:41 50.5 °F /  10.3 °C 28.9 °F /  -1.7 °C 30.43in /  1030.4hPa Calm   2.0mph /  3.2km/h 43% 0.00in /  0mm 0.0 W/m2
23:47 50.4 °F /  10.2 °C 28.8 °F /  -1.8 °C 30.43in /  1030.4hPa ENE 0.9mph /  1.4km/h 1.0mph /  1.6km/h 43% 0.00in /  0mm 0.0 W/m2
23:53 50.2 °F /  10.1 °C 29.1 °F /  -1.6 °C 30.43in /  1030.4hPa Calm   2.0mph /  3.2km/h 44% 0.00in /  0mm 0.0 W/m2
23:59 50.2 °F /  10.1 °C 29.1 °F /  -1.6 °C 30.43in /  1030.4hPa Calm   4.0mph /  6.4km/h 44% 0.00in /  0mm 0.0 W/m2
Olympia, Windhoek, Namibia
Compliments of Weather Underground - 3 mb